Latest Weather Observations for Edenhope

IDV60801

Issued at 5:35 am EST Friday 19 September 2014 (issued every 30 minutes, with the page automatically refreshed every 10 minutes)

About weather observations | Map of weather stations | Latest weather observations for VIC | Other Formats
Station Details ID: 079099 Name: EDENHOPE AIRPORT Lat: -37.02 Lon: 141.27 Height: 155.0 m
Data from the previous 72 hours. | See also: Recent months at Edenhope
Date/Time
EST
Temp
°C
App
Temp
°C
Dew
Point
Rel
Hum
%
Delta-T
°C
Wind Press
QNH
hPa
Press
MSL
hPa
Rain
since 9 am
mm
Dir
 
Spd
km/h
Gust
km/h
Spd
kts
Gust
kts
19/05:30am -0.2 -2.7 -0.8 96 0.2 E 2 6 1 3 - - 0.0
19/05:00am 0.2 -1.8 -0.4 96 0.2 N 0 0 0 0 - - 0.0
19/04:30am 0.5 -1.5 -0.2 95 0.3 CALM 0 0 0 0 - - 0.0
19/04:00am 0.9 -1.0 0.3 96 0.2 CALM 0 0 0 0 - - 0.0
19/03:30am 1.3 -0.6 0.7 96 0.2 CALM 0 0 0 0 - - 0.0
19/03:00am 1.1 -0.9 0.2 94 0.3 CALM 0 0 0 0 - - 0.0
19/02:30am 2.1 0.3 1.4 95 0.3 CALM 0 0 0 0 - - 0.0
19/02:00am 2.6 0.5 1.9 95 0.3 SSE 2 4 1 2 - - 0.0
19/01:30am 2.5 0.8 1.8 95 0.3 CALM 0 0 0 0 - - 0.0
19/01:00am 3.1 1.5 2.4 95 0.3 CALM 0 0 0 0 - - 0.0
19/12:30am 3.5 2.0 2.9 96 0.2 CALM 0 0 0 0 - - 0.0
19/12:00am 3.3 1.7 2.6 95 0.3 NW 0 0 0 0 - - 0.0
 
Date/Time
EST
Temp
°C
App
Temp
°C
Dew
Point
Rel
Hum
%
Delta-T
°C
Wind Press
QNH
hPa
Press
MSL
hPa
Rain
since 9 am
mm
Dir
 
Spd
km/h
Gust
km/h
Spd
kts
Gust
kts
18/11:30pm 4.3 2.9 3.3 93 0.4 CALM 0 0 0 0 - - 0.0
18/11:00pm 5.2 2.7 3.9 91 0.6 SE 6 6 3 3 - - 0.0
18/10:30pm 6.4 4.4 4.6 88 0.8 SE 4 6 2 3 - - 0.0
18/10:00pm 6.5 4.1 4.3 86 1.0 SSE 6 7 3 4 - - 0.0
18/09:30pm 7.2 4.9 4.7 84 1.1 SSE 6 7 3 4 - - 0.0
18/09:00pm 7.7 5.4 5.0 83 1.2 SSW 6 7 3 4 - - 0.0
18/08:30pm 7.9 5.6 5.0 82 1.3 S 6 7 3 4 - - 0.0
18/08:00pm 9.1 6.7 5.1 76 1.8 S 7 13 4 7 - - 0.0
18/07:30pm 9.5 7.0 4.7 72 2.2 S 7 9 4 5 - - 0.0
18/07:00pm 10.8 8.0 5.1 68 2.6 S 9 15 5 8 - - 0.0
18/06:30pm 11.1 9.0 5.6 69 2.6 SSW 6 11 3 6 - - 0.0
18/06:00pm 11.3 10.5 6.4 72 2.3 WSW 0 2 0 1 - - 0.0
18/05:30pm 11.5 9.7 5.6 67 2.8 S 4 7 2 4 - - 0.0
18/05:00pm 12.1 8.8 4.8 61 3.4 SSW 11 17 6 9 - - 0.0
18/04:30pm 12.9 10.0 6.3 64 3.2 S 11 17 6 9 - - 0.0
18/04:00pm 13.6 11.1 4.5 54 4.2 S 7 17 4 9 - - 0.0
18/03:30pm 12.9 9.7 5.1 59 3.6 SSE 11 20 6 11 - - 0.0
18/03:00pm 13.9 10.6 4.8 54 4.3 SW 11 17 6 9 - - 0.0
18/02:30pm 13.2 10.8 4.4 55 4.1 SW 6 9 3 5 - - 0.0
18/02:00pm 13.7 11.1 4.0 52 4.5 W 7 13 4 7 - - 0.0
18/01:30pm 13.0 10.6 4.4 56 4.0 W 6 9 3 5 - - 0.0
18/01:00pm 13.0 10.1 4.9 58 3.8 SW 9 15 5 8 - - 0.0
18/12:30pm 12.2 8.8 3.9 57 3.8 SW 11 15 6 8 - - 0.0
18/12:00pm 12.4 9.0 3.9 56 3.9 S 11 19 6 10 - - 0.0
18/11:30am 13.3 10.2 3.7 52 4.4 SSW 9 15 5 8 - - 0.0
18/11:00am 11.5 7.7 4.0 60 3.4 SSW 13 20 7 11 - - 0.0
18/10:30am 11.1 7.6 3.4 59 3.4 SSW 11 19 6 10 - - 0.0
18/10:00am 11.1 7.5 5.2 67 2.7 SW 13 17 7 9 - - 0.0
18/09:30am 11.6 7.5 4.3 61 3.3 SW 15 22 8 12 - - 0.0
18/09:00am 10.8 7.8 4.0 63 3.0 SW 9 17 5 9 - - 0.0
18/08:30am 10.2 6.6 5.0 70 2.4 WSW 13 20 7 11 - - 0.0
18/08:00am 9.0 5.7 4.4 73 2.0 W 11 17 6 9 - - 0.0
18/07:30am 8.2 5.6 4.0 75 1.8 W 7 11 4 6 - - 0.0
18/07:00am 7.5 4.9 4.1 79 1.5 WSW 7 9 4 5 - - 0.0
18/06:30am 6.8 4.2 3.4 79 1.4 WSW 6 9 3 5 - - 0.0
18/06:00am 6.6 4.0 3.0 78 1.5 SW 6 9 3 5 - - 0.0
18/05:30am 7.2 5.0 3.4 77 1.6 SSW 4 7 2 4 - - 0.0
18/05:00am 7.3 4.8 3.5 77 1.6 W 6 9 3 5 - - 0.0
18/04:30am 7.6 4.4 3.3 74 1.8 W 9 11 5 6 - - 0.0
18/04:00am 7.2 4.6 3.4 77 1.6 W 6 7 3 4 - - 0.0
18/03:30am 6.8 4.6 3.2 78 1.5 WSW 4 6 2 3 - - 0.0
18/03:00am 6.5 4.2 2.9 78 1.5 WSW 4 6 2 3 - - 0.0
18/02:30am 6.4 4.1 2.7 77 1.5 W 4 4 2 2 - - 0.0
18/02:00am 6.1 4.1 2.2 76 1.6 NW 2 4 1 2 - - 0.0
18/01:30am 6.6 4.5 1.5 70 2.1 W 2 4 1 2 - - 0.0
18/01:00am 6.5 4.0 1.6 71 2.0 WSW 4 7 2 4 - - 0.0
18/12:30am 6.9 3.8 1.4 68 2.2 SW 7 11 4 6 - - 0.0
18/12:00am 7.3 3.4 1.4 66 2.4 SW 11 17 6 9 - - 0.0
 
Date/Time
EST
Temp
°C
App
Temp
°C
Dew
Point
Rel
Hum
%
Delta-T
°C
Wind Press
QNH
hPa
Press
MSL
hPa
Rain
since 9 am
mm
Dir
 
Spd
km/h
Gust
km/h
Spd
kts
Gust
kts
17/11:30pm 8.2 4.4 1.8 64 2.7 SW 11 19 6 10 - - 0.0
17/11:00pm 8.3 5.3 2.1 65 2.6 SW 7 13 4 7 - - 0.0
17/10:30pm 8.4 5.3 3.5 71 2.1 WSW 9 15 5 8 - - 0.0
17/10:00pm 8.4 5.3 3.8 73 2.0 WSW 9 13 5 7 - - 0.0
17/09:30pm 8.6 5.6 4.0 73 2.0 SW 9 15 5 8 - - 0.0
17/09:00pm 8.7 6.1 4.1 73 2.0 WSW 7 11 4 6 - - 0.0
17/08:30pm 9.1 6.1 3.9 70 2.3 SW 9 17 5 9 - - 0.0
17/08:00pm 8.9 5.8 3.5 69 2.4 WSW 9 13 5 7 - - 0.0
17/07:30pm 8.3 5.5 3.2 70 2.2 WSW 7 9 4 5 - - 0.0
17/07:00pm 8.5 4.8 2.5 66 2.5 WSW 11 19 6 10 - - 0.0
17/06:30pm 9.3 5.9 4.1 70 2.3 SW 11 17 6 9 - - 0.0
17/06:00pm 10.9 6.1 4.4 64 2.9 SSW 19 28 10 15 - - 0.0
17/05:30pm 11.4 5.4 3.4 58 3.6 SW 24 37 13 20 - - 0.0
17/05:00pm 12.2 7.1 4.2 58 3.6 SW 20 28 11 15 - - 0.0
17/04:30pm 13.1 7.3 4.5 56 4.0 SW 24 35 13 19 - - 0.0
17/04:00pm 13.5 8.3 5.4 58 3.8 SW 22 35 12 19 - - 0.0
17/03:30pm 12.7 7.4 5.1 60 3.5 WSW 22 32 12 17 - - 0.0
17/03:00pm 13.3 6.9 5.0 57 3.9 WSW 28 39 15 21 - - 0.0
17/02:30pm 14.2 9.5 5.0 54 4.3 WSW 19 26 10 14 - - 0.0
17/02:00pm 13.6 7.1 2.8 48 4.8 WSW 26 41 14 22 - - 0.0
17/01:30pm 13.3 7.2 2.8 49 4.7 WSW 24 41 13 22 - - 0.0
17/01:00pm 12.6 5.6 2.2 49 4.5 SW 28 46 15 25 - - 0.0
17/12:30pm 12.3 6.5 2.2 50 4.4 SSW 22 33 12 18 - - 0.0
17/12:00pm 13.0 6.5 2.6 49 4.6 SW 26 37 14 20 - - 0.0
17/11:30am 12.5 5.4 3.5 54 4.0 SW 30 46 16 25 - - 0.0
17/11:00am 11.3 5.0 3.6 59 3.4 SW 26 43 14 23 - - 0.0
17/10:30am 12.4 7.3 6.0 65 3.0 WSW 22 37 12 20 - - 0.0
17/10:00am 11.4 7.0 6.7 73 2.2 SW 19 35 10 19 - - 0.0
17/09:30am 10.6 6.8 7.5 81 1.5 SW 17 26 9 14 - - 0.0
17/09:00am 9.6 6.3 8.0 90 0.8 WSW 15 24 8 13 - - 0.6
17/08:30am 8.8 5.7 7.4 91 0.7 WSW 13 19 7 10 - - 0.6
17/08:00am 8.3 5.6 7.2 93 0.5 W 11 17 6 9 - - 0.6
17/07:30am 7.1 5.0 6.7 97 0.2 W 7 11 4 6 - - 0.6
17/07:00am 5.0 2.7 4.6 97 0.2 W 6 7 3 4 - - 0.6
17/06:30am 4.7 2.3 4.3 97 0.2 W 6 7 3 4 - - 0.6
17/06:00am 4.8 2.4 4.2 96 0.3 W 6 7 3 4 - - 0.6
17/05:30am 5.3 3.0 4.7 96 0.3 W 6 7 3 4 - - 0.6
17/05:00am 5.3 2.8 4.6 95 0.3 W 7 9 4 5 - - 0.6
17/04:30am 6.6 4.3 5.9 95 0.3 W 7 9 4 5 - - 0.6
17/04:00am 7.1 4.6 6.4 95 0.3 W 9 13 5 7 - - 0.4
17/03:30am 6.6 4.3 5.7 94 0.4 W 7 11 4 6 - - 0.4
17/03:00am 7.3 5.1 6.2 93 0.5 W 7 11 4 6 - - 0.4
17/02:30am 7.3 4.8 6.4 94 0.4 W 9 13 5 7 - - 0.4
17/02:00am 7.8 5.0 7.1 95 0.3 WSW 11 15 6 8 - - 0.4
17/01:30am 8.0 5.3 7.2 95 0.4 WSW 11 17 6 9 - - 0.4
17/01:00am 8.4 5.4 7.6 95 0.4 WSW 13 20 7 11 - - 0.4
17/12:30am 8.5 6.0 8.1 97 0.2 W 11 13 6 7 - - 0.0
17/12:00am 8.1 6.1 7.3 95 0.4 W 7 11 4 6 - - 0.0
 
Date/Time
EST
Temp
°C
App
Temp
°C
Dew
Point
Rel
Hum
%
Delta-T
°C
Wind Press
QNH
hPa
Press
MSL
hPa
Rain
since 9 am
mm
Dir
 
Spd
km/h
Gust
km/h
Spd
kts
Gust
kts
16/11:30pm 8.1 5.4 7.2 94 0.4 W 11 15 6 8 - - 0.0
16/11:00pm 8.8 6.1 7.3 90 0.7 W 11 17 6 9 - - 0.0
16/10:30pm 9.1 6.4 7.5 90 0.8 W 11 15 6 8 - - 0.0
16/10:00pm 10.2 7.7 8.1 87 1.0 W 11 19 6 10 - - 0.0
16/09:30pm 10.3 8.4 7.7 84 1.3 WSW 7 11 4 6 - - 0.0
16/09:00pm 10.6 8.3 7.5 81 1.5 WSW 9 15 5 8 - - 0.0
16/08:30pm 10.4 8.0 7.1 80 1.6 WSW 9 17 5 9 - - 0.0
16/08:00pm 11.4 8.3 7.1 75 2.1 W 13 19 7 10 - - 0.0
16/07:30pm 11.8 7.7 6.1 68 2.7 W 17 32 9 17 - - 0.0
16/07:00pm 11.8 9.2 6.1 68 2.7 W 9 15 5 8 - - 0.0
16/06:30pm 11.9 8.9 5.8 66 2.9 W 11 17 6 9 - - 0.0
16/06:00pm 12.8 9.8 6.2 64 3.2 WSW 11 17 6 9 - - 0.0
16/05:30pm 14.4 10.4 4.7 52 4.5 WSW 15 22 8 12 - - 0.0
16/05:00pm 15.5 11.9 6.8 56 4.3 WSW 15 22 8 12 - - 0.0
16/04:30pm 14.5 11.1 7.5 63 3.5 SSW 15 22 8 12 - - 0.0
16/04:00pm 15.4 12.4 7.9 61 3.8 SW 13 26 7 14 - - 0.0
16/03:30pm 15.8 12.4 7.8 59 4.0 SW 15 26 8 14 - - 0.0
16/03:00pm 15.7 11.5 7.5 58 4.1 WSW 19 26 10 14 - - 0.0
16/02:30pm 14.8 10.2 8.3 65 3.3 WSW 22 30 12 16 - - 0.0
16/02:00pm 13.5 9.3 9.6 77 2.0 WSW 22 33 12 18 - - 0.0
16/01:30pm 15.6 11.0 6.3 54 4.5 WSW 20 32 11 17 - - 0.0
16/01:00pm 15.8 11.8 8.1 60 3.9 WSW 19 26 10 14 - - 0.0
16/12:30pm 15.8 11.4 7.6 58 4.1 WSW 20 30 11 16 - - 0.0
16/12:00pm 15.0 11.2 7.5 61 3.7 SW 17 26 9 14 - - 0.0
16/11:30am 15.1 10.7 7.4 60 3.8 SW 20 28 11 15 - - 0.0
16/11:00am 14.8 10.5 7.1 60 3.8 SW 19 30 10 16 - - 0.0
16/10:30am 13.9 10.4 7.2 64 3.3 WSW 15 22 8 12 - - 0.0
16/10:00am 13.5 10.1 7.5 67 3.0 SW 15 28 8 15 - - 0.0
16/09:30am 12.4 8.0 6.5 67 2.8 SSW 19 28 10 15 - - 0.0
16/09:00am 11.6 8.8 7.1 74 2.2 SSW 11 22 6 12 - - 0.0
16/08:30am 11.0 7.7 6.6 74 2.1 SW 13 17 7 9 - - 0.0
16/08:00am 10.1 7.1 5.9 75 2.0 SW 11 19 6 10 - - 0.0
16/07:30am 8.9 5.9 5.8 81 1.4 SW 11 17 6 9 - - 0.0
16/07:00am 8.2 5.4 5.1 81 1.4 SW 9 17 5 9 - - 0.0
16/06:30am 8.5 5.4 5.6 82 1.3 SW 11 17 6 9 - - 0.0
16/06:00am 9.4 6.2 6.7 83 1.3 SW 13 20 7 11 - - 0.0

Other Formats:

Comma delimited format used in spreadsheet applications
http://www.bom.gov.au/fwo/IDV60801/IDV60801.95832.axf

JavaScript Object Notation format (JSON) in row-major order
http://www.bom.gov.au/fwo/IDV60801/IDV60801.95832.json